TDPD/DOM METAR and TAF weather

Enter ICAO airport designator
Station Type Date Time Source
TDPD METAR 2021/02/24 17:00 UTC NOAA

TDPD 241700Z 11014KT 9999 SCT016 26/22 Q1019


Station Type Date Time Source
TDPD Decoded METAR 2021/02/24 17:00 UTC NOAA

Melville Hall Airport, Dominica (TDPD) 15-32N 061-18W 14M
Feb 24, 2021 - 12:00 PM EST / 2021.02.24 1700 UTC
Wind: from the ESE (110 degrees) at 16 MPH (14 KT):0
Visibility: greater than 7 mile(s):0
Sky conditions: partly cloudy
Temperature: 78 F (26 C)
Dew Point: 71 F (22 C)
Relative Humidity: 78%
Pressure (altimeter): 30.09 in. Hg (1019 hPa)
ob: TDPD 241700Z 11014KT 9999 SCT016 26/22 Q1019
cycle: 17

Station Type Date Time Source
TDPD TAF 2021/02/24 18:30 UTC NOAA

TAF TDPD 241700Z 2418/2518 10014KT 9999 SCT018
TEMPO 2418/2422 10015G25KT

Example: see airport list